createdAt,value
2017-12-19T00:01:24.022Z,62.70
2017-12-19T00:03:51.548Z,62.20
2017-12-19T00:06:19.073Z,62.20
2017-12-19T00:08:46.600Z,62.60
2017-12-19T00:11:14.121Z,62.40
2017-12-19T00:13:41.663Z,63.00
2017-12-19T00:16:09.196Z,62.50
2017-12-19T00:18:36.740Z,62.40
2017-12-19T00:21:04.261Z,62.90
2017-12-19T00:23:32.738Z,62.90
2017-12-19T00:26:00.257Z,62.90
2017-12-19T00:28:28.564Z,63.20
2017-12-19T00:30:56.086Z,63.20
2017-12-19T00:33:23.613Z,63.20
2017-12-19T00:35:51.131Z,62.80
2017-12-19T00:38:18.655Z,62.70
2017-12-19T00:40:46.189Z,61.90
2017-12-19T00:43:13.712Z,61.90
2017-12-19T00:45:42.198Z,62.10
2017-12-19T00:48:09.718Z,62.10
2017-12-19T00:50:37.247Z,62.20
2017-12-19T00:53:05.535Z,63.00
2017-12-19T00:55:33.083Z,62.30
2017-12-19T00:58:00.593Z,62.40
2017-12-19T01:00:28.130Z,62.70
2017-12-19T01:02:55.648Z,62.90
2017-12-19T01:05:23.581Z,62.70
2017-12-19T01:07:51.104Z,62.60
2017-12-19T01:10:18.642Z,62.70
2017-12-19T01:12:47.716Z,62.90
2017-12-19T01:15:15.267Z,62.50
2017-12-19T01:17:43.584Z,62.60
2017-12-19T01:20:11.125Z,62.60
2017-12-19T01:22:38.650Z,62.50
2017-12-19T01:25:06.192Z,63.00
2017-12-19T01:27:33.712Z,62.30
2017-12-19T01:30:01.623Z,62.40
2017-12-19T01:32:30.618Z,62.20
2017-12-19T01:34:58.159Z,62.70
2017-12-19T01:37:25.695Z,62.80
2017-12-19T01:39:54.152Z,62.10
2017-12-19T01:42:22.038Z,62.10
2017-12-19T01:44:50.362Z,62.40
2017-12-19T01:47:17.892Z,62.30
2017-12-19T01:49:45.434Z,62.80
2017-12-19T01:52:12.954Z,62.60
2017-12-19T01:54:40.509Z,62.50
2017-12-19T01:57:08.233Z,62.90
2017-12-19T01:59:35.753Z,62.60
2017-12-19T02:02:03.965Z,62.60
2017-12-19T02:04:31.890Z,62.60
2017-12-19T02:07:00.237Z,62.90
2017-12-19T02:09:28.693Z,62.40
2017-12-19T02:11:57.742Z,63.00
2017-12-19T02:14:25.788Z,62.80
2017-12-19T02:16:53.321Z,62.90
2017-12-19T02:19:20.842Z,63.30
2017-12-19T02:21:48.401Z,63.00
2017-12-19T02:24:16.316Z,62.80
2017-12-19T02:26:43.854Z,62.60
2017-12-19T02:29:11.372Z,62.40
2017-12-19T02:31:38.912Z,62.90
2017-12-19T02:34:06.449Z,61.70
2017-12-19T02:36:33.988Z,62.00
2017-12-19T02:39:01.498Z,62.50
2017-12-19T02:41:29.038Z,61.40
2017-12-19T02:43:57.472Z,62.00
2017-12-19T02:46:25.009Z,61.60
2017-12-19T02:48:53.461Z,61.70
2017-12-19T02:51:20.996Z,62.10
2017-12-19T02:53:48.525Z,62.00
2017-12-19T02:56:16.053Z,62.40
2017-12-19T02:58:43.568Z,62.50
2017-12-19T03:01:11.868Z,61.80
2017-12-19T03:03:39.377Z,61.70
2017-12-19T03:06:06.906Z,61.90
2017-12-19T03:08:35.226Z,61.40
2017-12-19T03:11:02.733Z,61.40
2017-12-19T03:13:31.048Z,61.90
2017-12-19T03:15:58.573Z,61.80
2017-12-19T03:18:26.108Z,62.30
2017-12-19T03:20:53.627Z,61.90
2017-12-19T03:23:21.170Z,62.40
2017-12-19T03:25:48.690Z,61.80
2017-12-19T03:28:16.221Z,62.20
2017-12-19T03:30:44.515Z,62.10
2017-12-19T03:33:12.055Z,61.50
2017-12-19T03:35:39.579Z,61.40
2017-12-19T03:38:08.925Z,61.20
2017-12-19T03:40:37.321Z,61.30
2017-12-19T03:43:04.852Z,61.50
2017-12-19T03:45:32.388Z,61.70
2017-12-19T03:47:59.926Z,61.80
2017-12-19T03:50:28.221Z,62.60
2017-12-19T03:52:55.757Z,62.10
2017-12-19T03:55:24.043Z,62.50
2017-12-19T03:57:51.578Z,65.00
2017-12-19T04:00:19.093Z,61.80
2017-12-19T04:02:46.643Z,62.10
2017-12-19T04:05:14.158Z,61.70
2017-12-19T04:07:42.485Z,62.20
2017-12-19T04:10:10.963Z,62.00
2017-12-19T04:12:38.497Z,62.00
2017-12-19T04:15:06.778Z,62.80
2017-12-19T04:17:35.077Z,62.80
2017-12-19T04:20:02.605Z,62.20
2017-12-19T04:22:30.126Z,62.10
2017-12-19T04:24:57.682Z,61.90
2017-12-19T04:27:25.212Z,62.50
2017-12-19T04:29:52.750Z,61.70
2017-12-19T04:32:21.050Z,62.90
2017-12-19T04:34:49.396Z,62.50
2017-12-19T04:37:16.915Z,63.00
2017-12-19T04:39:45.209Z,62.20
2017-12-19T04:42:12.738Z,62.20
2017-12-19T04:44:40.273Z,62.70
2017-12-19T04:47:09.312Z,63.10
2017-12-19T04:49:36.853Z,62.40
2017-12-19T04:52:04.374Z,61.60
2017-12-19T04:54:31.924Z,62.10
2017-12-19T04:56:59.436Z,62.60
2017-12-19T04:59:26.981Z,62.30
2017-12-19T05:01:54.506Z,61.80
2017-12-19T05:04:22.049Z,62.00
2017-12-19T05:06:49.573Z,62.10
2017-12-19T05:09:17.120Z,62.30
2017-12-19T05:11:44.638Z,62.20
2017-12-19T05:14:12.176Z,62.00
2017-12-19T05:16:39.697Z,61.90
2017-12-19T05:19:07.229Z,62.00
2017-12-19T05:21:34.766Z,62.10
2017-12-19T05:24:02.296Z,62.10
2017-12-19T05:26:29.815Z,62.10
2017-12-19T05:28:57.368Z,62.00
2017-12-19T05:31:24.886Z,62.20
2017-12-19T05:33:52.393Z,62.00
2017-12-19T05:36:19.968Z,61.70
2017-12-19T05:38:48.441Z,62.20
2017-12-19T05:41:16.746Z,61.60
2017-12-19T05:43:44.268Z,61.80
2017-12-19T05:46:12.582Z,62.20
2017-12-19T05:48:40.098Z,61.40
2017-12-19T05:51:07.901Z,61.40
2017-12-19T05:53:35.439Z,61.70
2017-12-19T05:56:02.981Z,61.50
2017-12-19T05:58:30.505Z,61.10
2017-12-19T06:00:58.678Z,61.20
2017-12-19T06:03:26.962Z,61.90
2017-12-19T06:05:54.499Z,61.00
2017-12-19T06:08:22.016Z,61.00
2017-12-19T06:10:49.551Z,60.80
2017-12-19T06:13:17.065Z,60.70
2017-12-19T06:15:44.610Z,60.50
2017-12-19T06:18:12.120Z,61.00
2017-12-19T06:20:40.780Z,61.20
2017-12-19T06:23:08.292Z,60.80
2017-12-19T06:25:35.828Z,60.90
2017-12-19T06:28:03.349Z,60.80
2017-12-19T06:30:30.884Z,60.80
2017-12-19T06:32:58.400Z,60.70
2017-12-19T06:35:25.948Z,60.80
2017-12-19T06:37:54.368Z,60.70
2017-12-19T06:40:21.897Z,60.80
2017-12-19T06:42:49.403Z,61.10
2017-12-19T06:45:16.918Z,61.30
2017-12-19T06:47:44.467Z,61.20
2017-12-19T06:50:11.989Z,60.90
2017-12-19T06:52:39.826Z,60.70
2017-12-19T06:55:08.122Z,61.00
2017-12-19T06:57:36.581Z,61.10
2017-12-19T07:00:04.099Z,61.60
2017-12-19T07:02:32.547Z,61.90
2017-12-19T07:05:00.074Z,62.00
2017-12-19T07:07:27.615Z,61.60
2017-12-19T07:09:55.141Z,61.70
2017-12-19T07:12:22.697Z,61.60
2017-12-19T07:14:50.212Z,61.30
2017-12-19T07:17:17.750Z,61.30
2017-12-19T07:19:45.282Z,61.10
2017-12-19T07:22:13.753Z,61.70
2017-12-19T07:24:42.046Z,61.60
2017-12-19T07:27:09.588Z,60.80
2017-12-19T07:29:39.010Z,60.60
2017-12-19T07:32:06.953Z,60.40
2017-12-19T07:34:34.479Z,60.50
2017-12-19T07:37:02.770Z,61.10
2017-12-19T07:39:31.231Z,61.50
2017-12-19T07:41:58.961Z,60.70
2017-12-19T07:44:26.479Z,60.50
2017-12-19T07:46:54.022Z,60.50
2017-12-19T07:49:22.353Z,60.70
2017-12-19T07:51:49.976Z,60.60
2017-12-19T07:54:17.488Z,60.60
2017-12-19T07:56:45.034Z,60.40
2017-12-19T07:59:12.553Z,60.50
2017-12-19T08:01:40.089Z,61.00
2017-12-19T08:04:08.324Z,61.50
2017-12-19T08:06:37.150Z,61.40
2017-12-19T08:09:04.681Z,59.90
2017-12-19T08:11:33.606Z,61.10
2017-12-19T08:14:01.575Z,60.70
2017-12-19T08:16:30.814Z,60.30
2017-12-19T08:18:58.341Z,60.30
2017-12-19T08:21:26.616Z,60.00
2017-12-19T08:23:54.152Z,59.80
2017-12-19T08:26:21.787Z,60.20
2017-12-19T08:28:49.329Z,60.00
2017-12-19T08:31:17.193Z,59.30
2017-12-19T08:33:44.770Z,59.30
2017-12-19T08:36:13.009Z,59.20
2017-12-19T08:38:40.559Z,59.10
2017-12-19T08:41:08.856Z,59.30
2017-12-19T08:43:36.382Z,59.40
2017-12-19T08:46:04.265Z,59.80
2017-12-19T08:48:31.806Z,59.40
2017-12-19T08:50:59.318Z,59.40
2017-12-19T08:53:26.857Z,59.60
2017-12-19T08:55:54.369Z,59.70
2017-12-19T08:58:23.586Z,60.60
2017-12-19T09:00:51.093Z,59.80
2017-12-19T09:03:18.635Z,59.70
2017-12-19T09:05:46.150Z,59.40
2017-12-19T09:08:14.665Z,60.00
2017-12-19T09:10:42.925Z,59.60
2017-12-19T09:13:10.486Z,59.80
2017-12-19T09:15:38.030Z,59.40
2017-12-19T09:18:06.335Z,59.80
2017-12-19T09:20:35.315Z,59.40
2017-12-19T09:23:02.852Z,59.90
2017-12-19T09:25:31.199Z,60.30
2017-12-19T09:27:59.670Z,60.20
2017-12-19T09:30:27.212Z,59.50
2017-12-19T09:32:55.533Z,59.00
2017-12-19T09:35:24.296Z,58.90
2017-12-19T09:37:51.818Z,58.80
2017-12-19T09:40:19.676Z,59.00
2017-12-19T09:42:47.746Z,58.90
2017-12-19T09:45:16.077Z,58.90
2017-12-19T09:47:44.899Z,59.00
2017-12-19T09:50:12.436Z,58.10
2017-12-19T09:52:40.890Z,58.00
2017-12-19T09:55:08.700Z,57.80
2017-12-19T09:57:37.873Z,59.00
2017-12-19T10:00:06.339Z,58.60
2017-12-19T10:02:35.090Z,58.00
2017-12-19T10:05:03.454Z,58.50
2017-12-19T10:07:31.886Z,58.10
2017-12-19T10:09:59.820Z,58.10
2017-12-19T10:12:28.093Z,58.30
2017-12-19T10:14:56.470Z,57.90
2017-12-19T10:17:24.024Z,57.90
2017-12-19T10:19:53.041Z,57.90
2017-12-19T10:22:20.578Z,57.90
2017-12-19T10:24:48.118Z,58.40
2017-12-19T10:27:15.637Z,58.40
2017-12-19T10:29:43.168Z,58.10
2017-12-19T10:32:11.466Z,58.90
2017-12-19T10:34:39.005Z,58.30
2017-12-19T10:37:08.301Z,58.80
2017-12-19T10:39:37.136Z,58.20
2017-12-19T10:42:04.877Z,59.20
2017-12-19T10:44:33.676Z,59.70
2017-12-19T10:47:01.836Z,59.80
2017-12-19T10:49:29.369Z,59.40
2017-12-19T10:51:57.141Z,58.50
2017-12-19T10:54:24.653Z,58.60
2017-12-19T10:56:52.582Z,58.50
2017-12-19T10:59:20.105Z,58.20
2017-12-19T11:01:47.633Z,58.30
2017-12-19T11:04:15.173Z,58.20
2017-12-19T11:06:43.103Z,58.00
2017-12-19T11:09:11.487Z,58.10
2017-12-19T11:11:39.029Z,58.20
2017-12-19T11:14:06.553Z,58.20
2017-12-19T11:16:34.088Z,58.40
2017-12-19T11:19:02.872Z,59.30
2017-12-19T11:21:30.405Z,59.00
2017-12-19T11:23:58.305Z,58.60
2017-12-19T11:26:25.841Z,58.80
2017-12-19T11:28:53.382Z,58.20
2017-12-19T11:31:20.926Z,58.20
2017-12-19T11:33:48.635Z,58.20
2017-12-19T11:36:16.525Z,58.20
2017-12-19T11:38:44.046Z,58.30
2017-12-19T11:41:11.578Z,58.50
2017-12-19T11:43:39.101Z,58.20
2017-12-19T11:46:07.028Z,57.90
2017-12-19T11:48:34.546Z,57.90
2017-12-19T11:51:02.083Z,58.30
2017-12-19T11:53:30.388Z,57.90
2017-12-19T11:55:57.945Z,57.10
2017-12-19T11:58:25.489Z,57.50
2017-12-19T12:00:53.017Z,57.70
2017-12-19T12:03:20.558Z,56.80
2017-12-19T12:05:48.077Z,57.00
2017-12-19T12:08:16.034Z,57.00
2017-12-19T12:10:43.554Z,56.60
2017-12-19T12:13:11.741Z,56.70
2017-12-19T12:15:39.530Z,57.10
2017-12-19T12:18:07.086Z,56.20
2017-12-19T12:20:35.985Z,56.90
2017-12-19T12:23:03.530Z,56.40
2017-12-19T12:25:31.061Z,56.10
2017-12-19T12:27:58.600Z,56.20
2017-12-19T12:30:26.168Z,56.80
2017-12-19T12:32:53.706Z,56.30
2017-12-19T12:35:21.248Z,56.40
2017-12-19T12:37:48.781Z,56.90
2017-12-19T12:40:17.061Z,56.50
2017-12-19T12:42:44.600Z,56.30
2017-12-19T12:45:12.118Z,56.10
2017-12-19T12:47:39.657Z,56.50
2017-12-19T12:50:07.937Z,57.00
2017-12-19T12:52:36.206Z,56.20
2017-12-19T12:55:03.737Z,55.80
2017-12-19T12:57:32.033Z,56.00
2017-12-19T13:00:00.322Z,56.30
2017-12-19T13:02:28.904Z,56.60
2017-12-19T13:04:57.249Z,56.70
2017-12-19T13:07:26.905Z,56.60
2017-12-19T13:09:54.833Z,56.30
2017-12-19T13:12:22.345Z,56.40
2017-12-19T13:14:50.289Z,56.20
2017-12-19T13:17:18.582Z,56.40
2017-12-19T13:19:46.881Z,56.50
2017-12-19T13:22:15.168Z,56.40
2017-12-19T13:24:43.764Z,56.70
2017-12-19T13:27:12.045Z,56.10
2017-12-19T13:29:40.363Z,56.00
2017-12-19T13:32:08.673Z,56.50
2017-12-19T13:34:37.366Z,56.20
2017-12-19T13:39:54.061Z,56.60
2017-12-19T13:42:22.404Z,56.30
2017-12-19T13:44:49.943Z,56.40
2017-12-19T13:47:19.141Z,56.10
2017-12-19T13:49:46.673Z,56.40
2017-12-19T13:52:14.963Z,56.30
2017-12-19T13:54:43.589Z,56.30
2017-12-19T13:57:11.502Z,56.10
2017-12-19T13:59:39.917Z,56.00
2017-12-19T14:02:08.197Z,56.10
2017-12-19T14:04:36.521Z,56.00
2017-12-19T14:07:04.052Z,56.00
2017-12-19T14:09:31.985Z,55.70
2017-12-19T14:12:00.342Z,55.90
2017-12-19T14:14:28.638Z,53.90
2017-12-19T14:16:57.052Z,55.80
2017-12-19T14:19:25.324Z,56.10
2017-12-19T14:21:53.626Z,56.00
2017-12-19T14:24:21.925Z,56.40
2017-12-19T14:26:50.281Z,57.20
2017-12-19T14:29:17.799Z,56.60
2017-12-19T14:31:46.097Z,56.50
2017-12-19T14:34:14.337Z,56.40
2017-12-19T14:36:42.986Z,56.60
2017-12-19T14:39:10.910Z,56.80
2017-12-19T14:41:39.209Z,57.00
2017-12-19T14:44:07.528Z,57.00
2017-12-19T14:46:35.846Z,57.10
2017-12-19T14:49:05.955Z,57.10
2017-12-19T14:51:33.894Z,57.40
2017-12-19T14:54:02.191Z,57.70
2017-12-19T14:56:31.692Z,57.70
2017-12-19T14:58:59.977Z,57.60
2017-12-19T15:01:27.504Z,57.50
2017-12-19T15:03:55.823Z,57.70
2017-12-19T15:06:24.140Z,57.50
2017-12-19T15:08:52.489Z,57.60
2017-12-19T15:11:20.797Z,57.50
2017-12-19T15:13:49.077Z,57.50
2017-12-19T15:16:18.237Z,57.70
2017-12-19T15:18:48.530Z,57.50
2017-12-19T15:21:17.167Z,57.70
2017-12-19T15:23:45.989Z,57.90
2017-12-19T15:26:14.703Z,57.70
2017-12-19T15:28:42.226Z,57.70
2017-12-19T15:31:10.150Z,57.60
2017-12-19T15:33:38.453Z,57.40
2017-12-19T15:36:05.978Z,57.20
2017-12-19T15:38:34.628Z,57.00
2017-12-19T15:41:02.156Z,57.00
2017-12-19T15:43:30.493Z,57.20
2017-12-19T15:45:58.012Z,57.20
2017-12-19T15:48:25.964Z,65.50
2017-12-19T15:50:54.439Z,55.80
2017-12-19T15:53:22.740Z,54.00
2017-12-19T15:55:51.094Z,53.70
2017-12-19T15:58:19.436Z,54.30
2017-12-19T16:00:47.717Z,54.40
2017-12-19T16:03:16.017Z,54.90
2017-12-19T16:05:43.524Z,54.80
2017-12-19T16:08:11.454Z,55.30
2017-12-19T16:10:40.576Z,55.50
2017-12-19T16:13:08.214Z,56.10
2017-12-19T16:15:37.015Z,56.80
2017-12-19T16:18:05.733Z,57.00
2017-12-19T16:20:33.252Z,56.80
2017-12-19T16:23:01.552Z,57.00
2017-12-19T16:25:30.077Z,57.00
2017-12-19T16:27:59.172Z,57.00
2017-12-19T16:30:27.486Z,57.40
2017-12-19T16:32:55.012Z,57.10
2017-12-19T16:35:23.304Z,57.40
2017-12-19T16:37:51.602Z,57.30
2017-12-19T16:40:20.241Z,57.60
2017-12-19T16:42:48.521Z,58.00
2017-12-19T16:45:16.826Z,57.80
2017-12-19T16:47:45.104Z,58.10
2017-12-19T16:50:14.276Z,58.20
2017-12-19T16:52:41.804Z,58.30
2017-12-19T16:55:10.113Z,58.60
2017-12-19T16:57:39.001Z,58.70
2017-12-19T17:00:06.937Z,58.60
2017-12-19T17:02:35.260Z,58.60
2017-12-19T17:05:03.800Z,58.60
2017-12-19T17:07:32.721Z,58.40
2017-12-19T17:10:00.251Z,58.40
2017-12-19T17:12:28.530Z,58.50
2017-12-19T17:14:56.104Z,58.30
2017-12-19T17:17:24.150Z,58.40
2017-12-19T17:19:52.847Z,58.40
2017-12-19T17:22:20.756Z,58.30
2017-12-19T17:24:49.073Z,58.40
2017-12-19T17:27:16.590Z,58.00
2017-12-19T17:29:44.162Z,58.50
2017-12-19T17:32:12.754Z,59.00
2017-12-19T17:34:41.707Z,58.00
2017-12-19T17:37:09.445Z,58.40
2017-12-19T17:39:37.802Z,58.20
2017-12-19T17:42:06.110Z,58.20
2017-12-19T17:44:34.453Z,58.00
2017-12-19T17:47:02.854Z,58.10
2017-12-19T17:49:31.127Z,58.50
2017-12-19T17:51:59.475Z,58.40
2017-12-19T17:54:27.803Z,58.40
2017-12-19T17:56:56.153Z,58.10
2017-12-19T17:59:24.484Z,57.90
2017-12-19T18:01:52.806Z,57.90
2017-12-19T18:04:21.202Z,58.10
2017-12-19T18:06:50.229Z,58.80
2017-12-19T18:09:18.938Z,58.90
2017-12-19T18:11:47.853Z,58.80
2017-12-19T18:14:16.136Z,58.60
2017-12-19T18:16:45.267Z,58.60
2017-12-19T18:19:13.745Z,58.70
2017-12-19T18:21:41.354Z,58.70
2017-12-19T18:24:09.686Z,58.50
2017-12-19T18:26:37.996Z,58.60
2017-12-19T18:29:06.277Z,58.50
2017-12-19T18:31:34.641Z,58.50
2017-12-19T18:34:02.948Z,58.60
2017-12-19T18:36:31.290Z,58.30
2017-12-19T18:38:59.576Z,57.90
2017-12-19T18:41:27.882Z,58.40
2017-12-19T18:43:56.213Z,57.70
2017-12-19T18:46:24.559Z,58.00
2017-12-19T18:48:52.912Z,57.80
2017-12-19T18:51:21.341Z,57.70
2017-12-19T18:53:49.691Z,57.40
2017-12-19T18:56:18.873Z,57.50
2017-12-19T18:58:47.237Z,57.30
2017-12-19T19:01:15.583Z,57.40
2017-12-19T19:03:43.702Z,59.10
2017-12-19T19:06:11.673Z,57.00
2017-12-19T19:08:40.545Z,56.90
2017-12-19T19:11:08.898Z,57.00
2017-12-19T19:13:36.553Z,57.40
2017-12-19T19:16:04.994Z,57.40
2017-12-19T19:18:34.209Z,57.00
2017-12-19T19:21:02.542Z,57.20
2017-12-19T19:23:30.465Z,56.00
2017-12-19T19:25:58.451Z,55.80
2017-12-19T20:59:24.853Z,66.30
2017-12-19T21:01:52.431Z,65.80
2017-12-19T21:04:20.792Z,65.20
2017-12-19T21:06:49.321Z,64.80
2017-12-19T21:09:17.429Z,64.10
2017-12-19T21:11:45.766Z,63.40
2017-12-19T21:14:14.126Z,63.40
2017-12-19T21:16:42.452Z,63.10
2017-12-19T21:19:10.787Z,63.20
2017-12-19T21:21:39.467Z,62.90
2017-12-19T21:24:08.620Z,63.20
2017-12-19T21:26:37.877Z,63.30
2017-12-19T21:29:08.715Z,63.00
2017-12-19T21:31:36.690Z,62.80
2017-12-19T21:34:05.821Z,62.60
2017-12-19T21:36:33.418Z,62.50
2017-12-19T21:39:02.553Z,62.70
2017-12-19T21:41:31.141Z,62.70
2017-12-19T21:43:58.714Z,62.60
2017-12-19T21:46:27.220Z,62.10
2017-12-19T21:48:55.193Z,61.90
2017-12-19T21:51:23.490Z,61.80
2017-12-19T21:53:52.628Z,62.20
2017-12-19T21:56:20.611Z,62.20
2017-12-19T21:58:49.001Z,62.50
2017-12-19T22:01:17.008Z,62.70
2017-12-19T22:03:46.265Z,62.90
2017-12-19T22:06:14.974Z,62.90
2017-12-19T22:08:43.559Z,63.00
2017-12-19T22:11:11.857Z,63.00
2017-12-19T22:13:40.206Z,63.00
2017-12-19T22:16:08.573Z,62.90
2017-12-19T22:18:37.672Z,63.00
2017-12-19T22:21:05.266Z,62.90
2017-12-19T22:23:34.346Z,63.00
2017-12-19T22:26:01.944Z,63.00
2017-12-19T22:28:30.284Z,63.10
2017-12-19T22:30:58.883Z,63.10
2017-12-19T22:33:27.205Z,63.10
2017-12-19T22:35:55.509Z,63.10
2017-12-19T22:38:25.332Z,63.20
2017-12-19T22:40:53.938Z,63.10
2017-12-19T22:43:21.912Z,63.20
2017-12-19T22:45:50.243Z,63.20
2017-12-19T22:48:19.540Z,63.40
2017-12-19T22:50:47.113Z,63.40
2017-12-19T22:53:16.292Z,63.60
2017-12-19T22:55:44.623Z,64.60
2017-12-19T22:58:12.837Z,63.80
2017-12-19T23:00:40.392Z,63.40
2017-12-19T23:03:09.374Z,63.50
2017-12-19T23:05:37.113Z,63.80
2017-12-19T23:08:05.428Z,64.30
2017-12-19T23:10:34.524Z,64.60
2017-12-19T23:13:02.066Z,64.50
2017-12-19T23:15:30.402Z,64.10
2017-12-19T23:17:59.002Z,63.80
2017-12-19T23:20:27.336Z,63.70
2017-12-19T23:22:55.694Z,64.00
2017-12-19T23:25:24.898Z,64.20
2017-12-19T23:27:52.460Z,64.30
2017-12-19T23:30:20.786Z,64.20
2017-12-19T23:32:49.145Z,64.20
2017-12-19T23:35:18.209Z,64.10
2017-12-19T23:37:45.740Z,63.60
2017-12-19T23:40:14.806Z,63.50
2017-12-19T23:42:42.404Z,63.50
2017-12-19T23:45:10.686Z,63.90
2017-12-19T23:47:39.040Z,64.40
2017-12-19T23:50:07.376Z,64.40
2017-12-19T23:52:35.677Z,64.30
2017-12-19T23:55:04.183Z,64.10
2017-12-19T23:57:32.541Z,63.90
